Time;durP1;ratioP1;P1;durP2;ratioP2;P2;SDS_P1;SDS_P2;PMS_P1;PMS_P2;Temp;Humidity;BMP_temperature;BMP_pressure;BME280_temperature;BME280_humidity;BME280_pressure;Samples;Min_cycle;Max_cycle;Signal;HPM_P1;HPM_P2
2022/10/08 00:01:12;;;;;;;0.40;0.40;;;8.20;99.90;;;;;;5071703;28;20428;-72
2022/10/08 00:04:00;;;;;;;0.40;0.40;;;8.30;99.90;;;;;;5071911;28;20463;-70
2022/10/08 00:06:48;;;;;;;0.40;0.40;;;8.20;99.90;;;;;;5073965;28;20526;-70
2022/10/08 00:09:36;;;;;;;0.40;0.40;;;8.20;99.90;;;;;;5073845;28;20511;-70
2022/10/08 00:12:24;;;;;;;0.50;0.50;;;8.30;99.90;;;;;;5074184;28;20540;-70
2022/10/08 00:15:12;;;;;;;0.47;0.47;;;8.20;99.90;;;;;;5085039;28;20811;-70
2022/10/08 00:18:01;;;;;;;0.40;0.40;;;8.20;99.90;;;;;;5095659;28;20437;-69
2022/10/08 00:20:49;;;;;;;0.40;0.40;;;8.20;99.90;;;;;;5093892;28;20422;-71
2022/10/08 00:23:37;;;;;;;0.40;0.40;;;8.20;99.90;;;;;;5118408;22;20485;-68
2022/10/08 00:26:27;;;;;;;0.40;0.40;;;8.10;99.90;;;;;;5096037;28;20421;-68
2022/10/08 00:29:17;;;;;;;0.40;0.40;;;8.10;99.90;;;;;;5092048;28;20857;-68
2022/10/08 00:32:05;;;;;;;0.40;0.40;;;8.00;99.90;;;;;;5092072;28;20429;-68
2022/10/08 00:34:55;;;;;;;0.40;0.40;;;8.10;99.90;;;;;;5101141;28;20429;-68
2022/10/08 00:37:43;;;;;;;0.40;0.40;;;8.10;99.90;;;;;;5102046;28;20501;-68
2022/10/08 00:40:32;;;;;;;0.40;0.40;;;8.10;99.90;;;;;;5093824;28;20808;-68
2022/10/08 00:43:36;;;;;;;0.40;0.40;;;8.00;99.90;;;;;;5093739;28;20434;-68
2022/10/08 00:46:28;;;;;;;0.40;0.40;;;8.00;99.90;;;;;;5092313;28;20509;-68
2022/10/08 00:49:20;;;;;;;0.40;0.40;;;7.90;99.90;;;;;;5093056;28;20425;-69
2022/10/08 00:52:09;;;;;;;0.40;0.40;;;8.00;99.90;;;;;;5092442;28;20454;-68
2022/10/08 00:54:58;;;;;;;0.40;0.40;;;8.10;99.90;;;;;;5092039;28;20934;-68
2022/10/08 00:57:46;;;;;;;0.40;0.40;;;8.00;99.90;;;;;;5096205;28;20464;-68
2022/10/08 01:00:34;;;;;;;0.40;0.40;;;8.00;99.90;;;;;;5110509;28;20434;-69
2022/10/08 01:03:22;;;;;;;0.40;0.40;;;7.80;99.90;;;;;;5109862;28;20469;-69
2022/10/08 01:06:21;;;;;;;0.40;0.40;;;8.00;99.90;;;;;;5110912;28;20434;-68
2022/10/08 01:09:15;;;;;;;0.40;0.40;;;8.00;99.90;;;;;;5110944;28;20429;-69
2022/10/08 01:12:13;;;;;;;0.40;0.40;;;8.00;99.90;;;;;;5110932;28;20437;-68
2022/10/08 01:15:07;;;;;;;0.40;0.40;;;8.10;99.90;;;;;;5110729;28;20493;-68
2022/10/08 01:18:03;;;;;;;0.40;0.40;;;8.10;99.90;;;;;;5109638;28;20903;-70
2022/10/08 01:21:26;;;;;;;0.40;0.40;;;8.20;99.90;;;;;;5109408;28;20432;-69
2022/10/08 01:25:31;;;;;;;0.40;0.40;;;8.20;99.90;;;;;;5106223;28;20489;-69
2022/10/08 01:27:43;;;;;;;0.40;0.40;;;8.20;99.90;;;;;;5088523;28;20434;-69
2022/10/08 01:30:35;;;;;;;0.40;0.40;;;8.20;99.90;;;;;;5091217;28;20435;-69
2022/10/08 01:33:27;;;;;;;0.40;0.40;;;8.20;99.90;;;;;;5078422;28;20450;-68
2022/10/08 01:36:17;;;;;;;0.60;0.60;;;8.20;99.90;;;;;;5077636;28;20425;-68
2022/10/08 01:39:10;;;;;;;0.40;0.40;;;8.30;99.90;;;;;;5076511;28;20997;-68
2022/10/08 01:42:00;;;;;;;0.40;0.40;;;8.40;99.90;;;;;;5076626;28;20435;-68
2022/10/08 01:44:54;;;;;;;0.40;0.40;;;8.40;99.90;;;;;;5077028;28;20608;-68
2022/10/08 01:47:44;;;;;;;0.40;0.40;;;8.50;99.90;;;;;;5076621;28;20522;-68
2022/10/08 01:50:37;;;;;;;0.40;0.40;;;8.60;99.90;;;;;;5076571;28;20977;-68
2022/10/08 01:53:29;;;;;;;0.40;0.40;;;8.60;99.90;;;;;;5076919;28;20439;-68
2022/10/08 01:56:23;;;;;;;0.40;0.40;;;8.60;99.90;;;;;;5077141;28;20533;-68
2022/10/08 01:59:15;;;;;;;0.40;0.40;;;8.50;99.90;;;;;;5076052;28;20461;-68
2022/10/08 02:02:10;;;;;;;0.40;0.40;;;8.50;99.90;;;;;;5076247;28;20419;-68
2022/10/08 02:04:58;;;;;;;0.40;0.40;;;8.50;99.90;;;;;;5076202;28;20469;-68
2022/10/08 02:07:46;;;;;;;0.40;0.40;;;8.60;99.90;;;;;;5075670;28;20437;-68
2022/10/08 02:10:35;;;;;;;0.40;0.40;;;8.50;99.90;;;;;;5075802;28;21053;-68
2022/10/08 02:13:23;;;;;;;0.47;0.47;;;8.50;99.90;;;;;;5076001;28;20477;-68
2022/10/08 02:16:19;;;;;;;0.40;0.40;;;8.60;99.90;;;;;;5076667;28;20415;-68
2022/10/08 02:19:15;;;;;;;0.67;0.67;;;8.60;99.90;;;;;;5075644;28;20427;-69
2022/10/08 02:22:05;;;;;;;0.40;0.40;;;8.70;99.90;;;;;;5074427;28;20439;-68
2022/10/08 02:24:57;;;;;;;0.40;0.40;;;8.60;99.90;;;;;;5074860;28;20454;-68
2022/10/08 02:27:54;;;;;;;0.40;0.40;;;8.70;99.90;;;;;;5081425;28;20435;-69
2022/10/08 02:30:48;;;;;;;0.40;0.40;;;8.60;99.90;;;;;;5080941;28;20784;-68
2022/10/08 02:33:40;;;;;;;20.80;14.60;;;8.60;99.90;;;;;;5082072;28;20439;-68
2022/10/08 02:36:34;;;;;;;0.40;0.40;;;8.70;99.90;;;;;;5081140;28;20511;-68
2022/10/08 02:39:27;;;;;;;0.40;0.40;;;8.90;99.90;;;;;;5076245;28;20427;-68
2022/10/08 02:42:18;;;;;;;0.40;0.40;;;8.70;99.90;;;;;;5076537;28;20454;-68
2022/10/08 02:45:11;;;;;;;0.40;0.40;;;8.60;99.90;;;;;;5076056;28;20986;-68
2022/10/08 02:48:05;;;;;;;0.40;0.40;;;8.60;99.90;;;;;;5076903;28;20803;-68
2022/10/08 02:50:55;;;;;;;0.40;0.40;;;8.60;99.90;;;;;;5080921;28;20481;-68
2022/10/08 02:53:47;;;;;;;0.40;0.40;;;8.60;99.90;;;;;;5093355;28;20455;-68
2022/10/08 02:56:39;;;;;;;0.40;0.40;;;8.60;99.90;;;;;;5093839;28;20411;-69
2022/10/08 02:59:27;;;;;;;0.40;0.40;;;8.60;99.90;;;;;;5093184;28;20408;-68
2022/10/08 03:02:21;;;;;;;0.40;0.40;;;8.60;99.90;;;;;;5093468;28;20447;-68
2022/10/08 03:05:15;;;;;;;0.40;0.40;;;8.80;99.90;;;;;;5081290;28;21143;-68
2022/10/08 03:08:04;;;;;;;0.40;0.40;;;8.80;99.90;;;;;;5074861;28;21012;-68
2022/10/08 03:10:54;;;;;;;0.40;0.40;;;8.90;99.90;;;;;;5080592;28;20430;-68
2022/10/08 03:13:46;;;;;;;0.40;0.40;;;8.90;99.90;;;;;;5092636;28;20453;-68
2022/10/08 03:16:37;;;;;;;0.40;0.40;;;8.90;99.90;;;;;;5092934;28;20415;-68
2022/10/08 03:19:25;;;;;;;0.40;0.40;;;8.90;99.90;;;;;;5092698;28;20509;-68
2022/10/08 03:22:14;;;;;;;0.40;0.40;;;8.80;99.90;;;;;;5078946;28;20469;-68
2022/10/08 03:25:02;;;;;;;0.40;0.40;;;8.80;99.90;;;;;;5074207;28;20978;-68
2022/10/08 03:27:51;;;;;;;0.40;0.40;;;8.90;99.90;;;;;;5074694;28;20431;-68
2022/10/08 03:30:39;;;;;;;0.40;0.40;;;8.90;99.90;;;;;;5073207;28;20425;-68
2022/10/08 03:33:27;;;;;;;0.40;0.40;;;9.10;99.90;;;;;;5074021;28;20447;-68
2022/10/08 03:36:15;;;;;;;0.40;0.40;;;9.10;99.90;;;;;;5074952;28;20511;-68
2022/10/08 03:39:04;;;;;;;0.40;0.40;;;9.20;99.90;;;;;;5074098;28;20420;-68
2022/10/08 03:41:52;;;;;;;0.40;0.40;;;9.40;99.90;;;;;;5075149;28;20438;-68
2022/10/08 03:44:41;;;;;;;0.40;0.40;;;9.40;99.90;;;;;;5074809;28;20423;-68
2022/10/08 03:47:29;;;;;;;0.40;0.40;;;9.40;99.90;;;;;;5074064;28;20429;-68
2022/10/08 03:50:17;;;;;;;0.40;0.40;;;9.60;99.90;;;;;;5074828;28;20425;-68
2022/10/08 03:53:05;;;;;;;0.40;0.40;;;9.60;99.90;;;;;;5073994;28;20448;-68
2022/10/08 03:55:54;;;;;;;0.40;0.40;;;9.70;99.90;;;;;;5073403;28;20998;-68
2022/10/08 03:58:43;;;;;;;0.40;0.40;;;9.70;99.90;;;;;;5074570;28;20458;-68
2022/10/08 04:01:32;;;;;;;0.40;0.40;;;9.70;99.90;;;;;;5074598;28;20477;-68
2022/10/08 04:04:20;;;;;;;0.40;0.40;;;9.60;99.90;;;;;;5074349;28;20430;-68
2022/10/08 04:07:12;;;;;;;0.40;0.40;;;9.60;99.90;;;;;;5072925;28;20443;-68
2022/10/08 04:10:00;;;;;;;0.40;0.40;;;9.60;99.90;;;;;;5073617;28;20426;-68
2022/10/08 04:12:48;;;;;;;0.40;0.40;;;9.40;99.90;;;;;;5074509;28;20450;-68
2022/10/08 04:15:37;;;;;;;0.40;0.40;;;9.40;99.90;;;;;;5088243;28;20956;-68
2022/10/08 04:18:26;;;;;;;0.40;0.40;;;9.40;99.90;;;;;;5093325;28;20438;-68
2022/10/08 04:21:16;;;;;;;0.40;0.40;;;9.30;99.90;;;;;;5094986;28;20418;-68
2022/10/08 04:24:05;;;;;;;0.40;0.40;;;9.30;99.90;;;;;;5094391;28;20584;-69
2022/10/08 04:26:53;;;;;;;0.40;0.40;;;9.20;99.90;;;;;;5092419;28;20462;-69
2022/10/08 04:29:41;;;;;;;0.40;0.40;;;9.20;99.90;;;;;;5094571;28;20797;-68
2022/10/08 04:32:29;;;;;;;0.40;0.40;;;9.20;99.90;;;;;;5094043;28;20495;-68
2022/10/08 04:35:18;;;;;;;0.40;0.40;;;9.20;99.90;;;;;;5094552;28;20506;-68
2022/10/08 04:38:06;;;;;;;0.40;0.40;;;9.10;99.90;;;;;;5094744;28;20781;-68
2022/10/08 04:41:02;;;;;;;0.40;0.40;;;9.10;99.90;;;;;;5092868;28;20426;-68
2022/10/08 04:43:51;;;;;;;0.40;0.40;;;9.10;99.90;;;;;;5094305;28;20446;-68
2022/10/08 04:46:39;;;;;;;0.40;0.40;;;9.10;99.90;;;;;;5093387;28;20462;-68
2022/10/08 04:49:28;;;;;;;0.40;0.40;;;9.00;99.90;;;;;;5094861;28;20418;-68
2022/10/08 04:52:19;;;;;;;0.40;0.40;;;9.10;99.90;;;;;;5094638;28;20481;-69
2022/10/08 04:55:08;;;;;;;0.40;0.40;;;8.80;99.90;;;;;;5095020;28;20503;-68
2022/10/08 04:57:56;;;;;;;0.40;0.40;;;8.80;99.90;;;;;;5110470;28;20506;-67
2022/10/08 05:00:45;;;;;;;0.40;0.40;;;8.80;99.90;;;;;;5109934;28;20436;-68
2022/10/08 05:03:36;;;;;;;0.40;0.40;;;8.80;99.90;;;;;;5111940;28;20515;-67
2022/10/08 05:06:26;;;;;;;0.40;0.40;;;8.70;99.90;;;;;;5108895;28;20536;-68
2022/10/08 05:09:16;;;;;;;0.40;0.40;;;8.90;99.90;;;;;;5110002;28;20415;-68
2022/10/08 05:12:04;;;;;;;0.40;0.40;;;8.90;99.90;;;;;;5108295;28;20430;-68
2022/10/08 05:14:52;;;;;;;0.40;0.40;;;8.90;99.90;;;;;;5084240;28;20419;-68
2022/10/08 05:17:40;;;;;;;0.60;0.60;;;8.90;99.90;;;;;;5073061;28;20511;-68
2022/10/08 05:20:28;;;;;;;0.40;0.40;;;8.90;99.90;;;;;;5072809;28;20528;-68
2022/10/08 05:23:16;;;;;;;0.40;0.40;;;8.80;99.90;;;;;;5072426;28;20572;-68
2022/10/08 05:26:14;;;;;;;0.40;0.40;;;8.80;99.90;;;;;;5079174;28;20459;-68
2022/10/08 05:29:02;;;;;;;0.40;0.40;;;8.70;99.90;;;;;;5073466;28;20806;-68
2022/10/08 05:31:50;;;;;;;0.40;0.40;;;8.70;99.90;;;;;;5073160;28;20438;-68
2022/10/08 05:34:38;;;;;;;0.40;0.40;;;8.70;99.90;;;;;;5072662;28;20510;-68
2022/10/08 05:37:26;;;;;;;0.40;0.40;;;8.90;99.90;;;;;;5071521;28;20973;-68
2022/10/08 05:40:15;;;;;;;0.40;0.40;;;8.70;99.90;;;;;;5071960;28;20954;-68
2022/10/08 05:43:04;;;;;;;0.40;0.40;;;8.80;99.90;;;;;;5073505;28;20501;-68
2022/10/08 05:45:52;;;;;;;0.40;0.40;;;8.80;99.90;;;;;;5072734;28;20415;-68
2022/10/08 05:48:40;;;;;;;0.40;0.40;;;8.80;99.90;;;;;;5071740;28;20415;-68
2022/10/08 05:51:29;;;;;;;0.40;0.40;;;8.80;99.90;;;;;;5073272;28;20935;-68
2022/10/08 05:54:18;;;;;;;0.40;0.40;;;8.80;99.90;;;;;;5074237;28;20536;-68
2022/10/08 05:57:06;;;;;;;0.40;0.40;;;8.70;99.90;;;;;;5074819;28;20943;-68
2022/10/08 05:59:56;;;;;;;0.40;0.40;;;8.60;99.90;;;;;;5072530;28;20427;-68
2022/10/08 06:02:44;;;;;;;0.40;0.40;;;8.60;99.90;;;;;;5071631;28;20580;-68
2022/10/08 06:05:33;;;;;;;0.40;0.40;;;8.50;99.90;;;;;;5072748;28;20438;-68
2022/10/08 06:08:21;;;;;;;0.40;0.40;;;8.50;99.90;;;;;;5072210;28;20419;-68
2022/10/08 06:11:09;;;;;;;0.40;0.40;;;8.60;99.90;;;;;;5072370;28;20775;-68
2022/10/08 06:13:59;;;;;;;0.40;0.40;;;8.60;99.90;;;;;;5073408;28;20455;-68
2022/10/08 06:16:48;;;;;;;0.40;0.40;;;8.60;99.90;;;;;;5095906;28;20434;-68
2022/10/08 06:19:36;;;;;;;0.40;0.40;;;8.70;99.90;;;;;;5095487;28;20427;-68
2022/10/08 06:22:24;;;;;;;0.50;0.50;;;8.70;99.90;;;;;;5117370;22;21090;-69
2022/10/08 06:25:13;;;;;;;0.40;0.40;;;8.80;99.90;;;;;;5094909;28;20886;-70
2022/10/08 06:28:01;;;;;;;0.40;0.40;;;8.70;99.90;;;;;;5095509;28;20850;-70
2022/10/08 06:30:49;;;;;;;0.40;0.40;;;8.70;99.90;;;;;;5094632;28;20422;-72
2022/10/08 06:33:38;;;;;;;0.40;0.40;;;8.80;99.90;;;;;;5095070;28;20438;-70
2022/10/08 06:36:28;;;;;;;0.40;0.40;;;8.80;99.90;;;;;;5094737;28;20430;-70
2022/10/08 06:39:17;;;;;;;0.50;0.50;;;8.80;99.90;;;;;;5094284;28;20418;-70
2022/10/08 06:42:05;;;;;;;0.40;0.40;;;9.00;99.90;;;;;;5095208;28;20441;-71
2022/10/08 06:44:53;;;;;;;0.40;0.40;;;9.00;99.90;;;;;;5095054;28;20425;-71
2022/10/08 06:47:48;;;;;;;0.40;0.40;;;9.00;99.90;;;;;;5093573;28;20981;-72
2022/10/08 06:50:38;;;;;;;0.40;0.40;;;9.10;99.90;;;;;;5094829;28;20422;-71
2022/10/08 06:53:26;;;;;;;0.40;0.40;;;9.20;99.90;;;;;;5094757;28;20442;-71
2022/10/08 06:56:16;;;;;;;0.40;0.40;;;9.30;99.90;;;;;;5094928;28;20422;-71
2022/10/08 06:59:05;;;;;;;0.50;0.50;;;9.30;99.90;;;;;;5094258;28;20422;-70
2022/10/08 07:01:53;;;;;;;0.40;0.40;;;9.30;99.90;;;;;;5094632;28;20563;-70
2022/10/08 07:04:41;;;;;;;0.40;0.40;;;9.50;99.90;;;;;;5094026;28;20423;-71
2022/10/08 07:07:30;;;;;;;0.40;0.40;;;9.60;99.90;;;;;;5094624;28;20858;-70
2022/10/08 07:10:18;;;;;;;0.40;0.40;;;9.60;99.90;;;;;;5094282;28;20433;-69
2022/10/08 07:13:06;;;;;;;0.40;0.40;;;9.70;99.90;;;;;;5094426;28;20579;-70
2022/10/08 07:16:01;;;;;;;0.40;0.40;;;9.90;99.90;;;;;;5094067;28;20938;-72
2022/10/08 07:18:50;;;;;;;0.40;0.40;;;10.00;99.90;;;;;;5093976;28;20415;-71
2022/10/08 07:21:39;;;;;;;0.40;0.40;;;10.10;99.90;;;;;;5094024;28;20734;-71
2022/10/08 07:24:28;;;;;;;0.40;0.40;;;10.20;99.90;;;;;;5094747;28;20453;-70
2022/10/08 07:27:17;;;;;;;0.40;0.40;;;10.30;99.90;;;;;;5094484;28;20462;-70
2022/10/08 07:30:06;;;;;;;0.83;0.83;;;10.50;99.90;;;;;;5093246;28;20419;-71
2022/10/08 07:32:54;;;;;;;0.40;0.40;;;10.70;99.90;;;;;;5093453;28;20449;-73
2022/10/08 07:35:42;;;;;;;0.50;0.50;;;10.70;99.90;;;;;;5095206;28;20811;-71
2022/10/08 07:38:30;;;;;;;0.90;0.90;;;10.90;99.90;;;;;;5094279;28;20763;-71
2022/10/08 07:41:19;;;;;;;1.20;1.10;;;11.10;99.90;;;;;;5095323;28;20418;-72
2022/10/08 07:44:10;;;;;;;0.63;0.63;;;11.20;99.90;;;;;;5093809;28;20990;-70
2022/10/08 07:46:58;;;;;;;3.60;0.93;;;11.40;99.90;;;;;;5093605;28;20470;-72
2022/10/08 07:49:47;;;;;;;0.70;0.70;;;11.50;99.90;;;;;;5094449;28;20422;-71
2022/10/08 07:52:35;;;;;;;0.40;0.40;;;11.80;99.90;;;;;;5095340;28;20976;-72
2022/10/08 07:55:23;;;;;;;0.97;0.97;;;11.90;99.90;;;;;;5095304;28;20423;-72
2022/10/08 07:58:13;;;;;;;1.20;1.10;;;12.10;99.90;;;;;;5093061;28;20426;-71
2022/10/08 08:01:02;;;;;;;0.40;0.40;;;12.20;99.90;;;;;;5094952;28;20433;-71
2022/10/08 08:03:54;;;;;;;1.17;1.17;;;12.40;99.90;;;;;;5093372;28;20453;-71
2022/10/08 08:06:44;;;;;;;0.40;0.40;;;12.60;99.90;;;;;;5094093;28;20425;-71
2022/10/08 08:09:32;;;;;;;0.50;0.50;;;12.70;99.90;;;;;;5093660;28;20411;-73
2022/10/08 08:12:20;;;;;;;1.13;1.13;;;13.00;99.90;;;;;;5093449;28;20402;-70
2022/10/08 08:15:10;;;;;;;0.80;0.70;;;13.10;99.90;;;;;;5080551;28;20431;-71
2022/10/08 08:17:58;;;;;;;0.40;0.40;;;13.20;99.90;;;;;;5073658;28;20451;-73
2022/10/08 08:20:46;;;;;;;1.33;1.13;;;13.40;99.90;;;;;;5072424;28;20419;-70
2022/10/08 08:23:36;;;;;;;1.23;0.87;;;13.40;99.90;;;;;;5072710;28;20459;-70
2022/10/08 08:26:27;;;;;;;0.40;0.40;;;13.50;99.90;;;;;;5074245;28;20509;-71
2022/10/08 08:29:16;;;;;;;1.20;0.83;;;13.60;99.90;;;;;;5072665;28;20557;-71
2022/10/08 08:32:05;;;;;;;0.63;0.63;;;13.80;99.90;;;;;;5073405;28;20526;-71
2022/10/08 08:34:54;;;;;;;1.27;0.90;;;14.10;99.90;;;;;;5072590;28;20419;-73
2022/10/08 08:37:42;;;;;;;0.40;0.40;;;14.50;99.90;;;;;;5074263;28;20941;-72
2022/10/08 08:40:30;;;;;;;0.67;0.67;;;14.60;99.90;;;;;;5072166;28;20428;-72
2022/10/08 08:43:18;;;;;;;0.50;0.50;;;14.60;99.90;;;;;;5073184;28;20452;-73
2022/10/08 08:46:06;;;;;;;1.07;0.97;;;14.90;99.90;;;;;;5073222;28;20427;-71
2022/10/08 08:48:58;;;;;;;0.40;0.40;;;15.10;99.90;;;;;;5072541;28;21235;-73
2022/10/08 08:51:47;;;;;;;0.40;0.40;;;15.40;99.90;;;;;;5073742;28;20905;-73
2022/10/08 08:54:35;;;;;;;0.50;0.50;;;15.40;99.90;;;;;;5073735;28;20576;-71
2022/10/08 08:57:34;;;;;;;0.40;0.40;;;15.40;99.90;;;;;;5073758;28;20935;-71
2022/10/08 09:00:27;;;;;;;0.90;0.77;;;15.40;99.90;;;;;;5073107;28;20419;-71
2022/10/08 09:03:21;;;;;;;0.40;0.40;;;15.30;99.90;;;;;;5073120;28;20528;-73
2022/10/08 09:06:14;;;;;;;0.77;0.77;;;15.40;99.90;;;;;;5072905;28;20453;-71
2022/10/08 09:09:11;;;;;;;0.40;0.40;;;15.30;99.90;;;;;;5072877;28;20520;-73
2022/10/08 09:12:00;;;;;;;3.07;1.60;;;15.30;99.90;;;;;;5072104;28;20947;-72
2022/10/08 09:14:51;;;;;;;1.07;0.70;;;15.50;99.90;;;;;;5081169;28;20423;-72
2022/10/08 09:17:41;;;;;;;2.50;2.40;;;15.60;99.90;;;;;;5092604;28;20415;-70
2022/10/08 09:20:30;;;;;;;14.10;1.67;;;15.70;99.90;;;;;;5092612;28;20414;-76
2022/10/08 09:23:21;;;;;;;0.67;0.67;;;16.00;99.90;;;;;;5091842;28;20454;-73
2022/10/08 09:26:15;;;;;;;0.40;0.40;;;16.10;99.90;;;;;;5093035;28;20418;-76
2022/10/08 09:29:04;;;;;;;0.70;0.70;;;16.20;99.90;;;;;;5091024;28;20221;-72
2022/10/08 09:31:53;;;;;;;0.60;0.50;;;16.20;99.90;;;;;;5093944;28;20773;-70
2022/10/08 09:34:42;;;;;;;0.50;0.50;;;16.00;99.90;;;;;;5091663;28;20282;-71
2022/10/08 09:37:30;;;;;;;8.53;2.10;;;15.90;99.90;;;;;;5093204;28;20441;-73
2022/10/08 09:40:21;;;;;;;0.50;0.50;;;15.90;99.90;;;;;;5093037;28;20440;-72
2022/10/08 09:43:16;;;;;;;1.63;1.30;;;16.00;99.90;;;;;;5093769;28;20216;-73
2022/10/08 09:46:10;;;;;;;0.70;0.70;;;16.30;99.90;;;;;;5092883;28;20211;-72
2022/10/08 09:49:20;;;;;;;0.90;0.90;;;16.40;99.90;;;;;;5092036;28;20717;-75
2022/10/08 09:52:13;;;;;;;1.03;1.03;;;16.50;99.90;;;;;;5093882;28;20196;-72
2022/10/08 09:55:09;;;;;;;5.27;1.00;;;16.40;99.90;;;;;;5096516;28;20476;-70
2022/10/08 09:57:59;;;;;;;0.40;0.40;;;16.40;99.90;;;;;;5096452;28;20207;-71
2022/10/08 10:00:57;;;;;;;1.67;1.57;;;16.60;99.90;;;;;;5093837;28;20318;-73
2022/10/08 10:03:51;;;;;;;0.40;0.40;;;16.80;99.90;;;;;;5096809;28;20242;-73
2022/10/08 10:06:44;;;;;;;0.47;0.47;;;16.80;99.90;;;;;;5095122;28;20207;-74
2022/10/08 10:09:42;;;;;;;1.33;1.07;;;16.70;99.90;;;;;;5094622;28;20220;-72
2022/10/08 10:12:33;;;;;;;0.63;0.63;;;16.50;99.90;;;;;;5096880;28;20714;-70
2022/10/08 10:15:29;;;;;;;6.63;1.33;;;16.10;99.90;;;;;;5082038;28;20577;-71
2022/10/08 10:18:21;;;;;;;0.40;0.40;;;15.80;99.90;;;;;;5074858;28;20203;-72
2022/10/08 10:21:15;;;;;;;0.87;0.87;;;15.70;99.90;;;;;;5075282;28;20203;-71
2022/10/08 10:24:26;;;;;;;0.40;0.40;;;15.70;99.90;;;;;;5074134;28;20238;-73
2022/10/08 10:27:18;;;;;;;0.40;0.40;;;15.80;99.90;;;;;;5075421;28;20203;-72
2022/10/08 10:30:15;;;;;;;0.63;0.63;;;15.80;99.90;;;;;;5074610;28;20231;-74
2022/10/08 10:33:10;;;;;;;0.40;0.40;;;15.70;99.90;;;;;;5074266;28;20819;-71
2022/10/08 10:36:04;;;;;;;0.70;0.70;;;15.70;99.90;;;;;;5076299;28;20427;-71
2022/10/08 10:39:01;;;;;;;2.80;0.97;;;15.50;99.90;;;;;;5076072;28;20430;-70
2022/10/08 10:41:55;;;;;;;0.80;0.80;;;15.50;99.90;;;;;;5074476;28;20207;-73
2022/10/08 10:44:52;;;;;;;1.00;0.97;;;15.40;99.90;;;;;;5075048;28;20425;-72
2022/10/08 10:47:40;;;;;;;0.50;0.50;;;15.40;99.90;;;;;;5074064;28;20697;-74
2022/10/08 10:50:37;;;;;;;0.50;0.50;;;15.50;99.90;;;;;;5074916;28;20251;-74
2022/10/08 10:53:35;;;;;;;0.40;0.40;;;15.50;99.90;;;;;;5075027;28;20443;-70
2022/10/08 10:56:30;;;;;;;0.40;0.40;;;15.40;99.90;;;;;;5075464;28;20426;-70
2022/10/08 10:59:35;;;;;;;3.00;1.20;;;15.30;99.90;;;;;;5075619;28;20199;-71
2022/10/08 11:02:29;;;;;;;3.43;3.33;;;15.10;99.90;;;;;;5075425;28;20813;-70
2022/10/08 11:05:22;;;;;;;0.60;0.60;;;14.90;99.90;;;;;;5074949;28;20423;-71
2022/10/08 11:08:31;;;;;;;0.50;0.50;;;14.80;99.90;;;;;;5075193;28;20435;-71
2022/10/08 11:11:25;;;;;;;0.40;0.40;;;14.70;99.90;;;;;;5074901;28;20447;-71
2022/10/08 11:14:37;;;;;;;0.47;0.47;;;14.70;99.90;;;;;;5078705;28;20453;-71
2022/10/08 11:17:45;;;;;;;6.40;3.03;;;14.60;99.90;;;;;;5094956;28;20852;-69
2022/10/08 11:20:52;;;;;;;1.37;1.27;;;14.50;99.90;;;;;;5093830;28;20911;-72
2022/10/08 11:23:58;;;;;;;1.10;1.00;;;14.20;99.90;;;;;;5093576;28;20461;-70
2022/10/08 11:26:55;;;;;;;1.47;1.37;;;14.10;99.90;;;;;;5095371;28;20946;-72
2022/10/08 11:29:49;;;;;;;0.50;0.50;;;14.00;99.90;;;;;;5092837;28;20466;-71
2022/10/08 11:32:37;;;;;;;1.30;1.20;;;14.10;99.90;;;;;;5093958;28;20457;-72
2022/10/08 11:35:33;;;;;;;4.53;2.27;;;14.10;99.90;;;;;;5093301;28;21137;-72
2022/10/08 11:38:29;;;;;;;2.67;1.70;;;14.10;99.90;;;;;;5094529;28;20433;-74
2022/10/08 11:41:24;;;;;;;0.40;0.40;;;13.90;99.90;;;;;;5093456;28;20461;-72
2022/10/08 11:44:13;;;;;;;0.40;0.40;;;13.90;99.90;;;;;;5094448;28;20811;-73
2022/10/08 11:47:36;;;;;;;1.13;0.70;;;14.10;99.90;;;;;;5094518;28;20433;-71
2022/10/08 11:50:28;;;;;;;2.23;1.40;;;14.30;99.90;;;;;;5093708;28;20458;-70
2022/10/08 11:53:19;;;;;;;1.17;0.80;;;14.60;99.90;;;;;;5094490;28;20760;-72
2022/10/08 11:56:11;;;;;;;0.80;0.80;;;14.90;99.90;;;;;;5093881;28;20980;-74
2022/10/08 11:59:08;;;;;;;0.87;0.50;;;15.20;99.90;;;;;;5094803;28;20513;-72
2022/10/08 12:01:58;;;;;;;1.60;1.33;;;15.20;99.90;;;;;;5093884;28;20418;-73
2022/10/08 12:04:50;;;;;;;0.40;0.40;;;15.40;99.90;;;;;;5096329;28;20198;-70
2022/10/08 12:07:39;;;;;;;0.40;0.40;;;15.30;99.90;;;;;;5096380;28;20426;-73
2022/10/08 12:10:33;;;;;;;0.60;0.60;;;15.50;99.90;;;;;;5095841;28;20486;-70
2022/10/08 12:13:30;;;;;;;0.40;0.40;;;15.80;99.90;;;;;;5098833;28;20273;-70
2022/10/08 12:16:19;;;;;;;0.50;0.50;;;16.00;99.90;;;;;;5088596;28;20200;-73
2022/10/08 12:19:46;;;;;;;2.37;1.80;;;16.30;99.90;;;;;;5085551;28;20196;-70
2022/10/08 12:23:01;;;;;;;0.87;0.87;;;16.30;99.90;;;;;;5085514;28;20301;-69
2022/10/08 12:26:10;;;;;;;1.23;1.13;;;16.30;99.90;;;;;;5086406;28;20699;-70
2022/10/08 12:28:59;;;;;;;1.90;1.43;;;16.30;99.90;;;;;;5088604;28;20279;-71
2022/10/08 12:32:01;;;;;;;0.90;0.53;;;16.30;99.90;;;;;;5086968;28;20200;-71
2022/10/08 12:34:49;;;;;;;0.50;0.50;;;16.10;99.90;;;;;;5087061;28;20203;-71
2022/10/08 12:37:53;;;;;;;1.37;0.60;;;15.90;99.90;;;;;;5087662;28;20197;-71
2022/10/08 12:40:42;;;;;;;0.40;0.40;;;15.70;99.90;;;;;;5087636;28;20434;-70
2022/10/08 12:43:38;;;;;;;0.70;0.70;;;15.50;99.90;;;;;;5086310;28;20212;-71
2022/10/08 12:46:39;;;;;;;0.50;0.50;;;15.40;99.90;;;;;;5087913;28;20260;-70
2022/10/08 12:49:34;;;;;;;0.40;0.40;;;16.50;99.90;;;;;;5088620;28;20454;-70
2022/10/08 12:52:23;;;;;;;0.70;0.70;;;15.70;99.90;;;;;;5086778;28;20203;-70
2022/10/08 12:55:16;;;;;;;0.60;0.60;;;15.80;99.90;;;;;;5087723;28;20458;-71
2022/10/08 12:58:04;;;;;;;0.40;0.40;;;15.90;99.90;;;;;;5088015;28;20287;-70
2022/10/08 13:00:55;;;;;;;0.47;0.47;;;16.10;99.90;;;;;;5087519;28;20572;-71
2022/10/08 13:03:43;;;;;;;0.40;0.40;;;16.30;99.90;;;;;;5087170;28;20447;-71
2022/10/08 13:06:32;;;;;;;0.70;0.70;;;16.20;99.90;;;;;;5087723;28;20215;-70
2022/10/08 13:09:27;;;;;;;1.00;1.00;;;16.20;99.90;;;;;;5088849;28;20442;-70
2022/10/08 13:12:15;;;;;;;0.47;0.47;;;16.20;99.90;;;;;;5087283;28;20419;-70
2022/10/08 13:15:07;;;;;;;0.40;0.40;;;16.00;99.90;;;;;;5096153;28;20418;-73
2022/10/08 13:17:55;;;;;;;0.40;0.40;;;16.30;99.90;;;;;;5105416;28;20242;-71
2022/10/08 13:20:56;;;;;;;0.40;0.40;;;16.80;99.90;;;;;;5102322;28;20275;-73
2022/10/08 13:23:45;;;;;;;0.60;0.60;;;17.20;99.90;;;;;;5100863;28;20283;-73
2022/10/08 13:26:38;;;;;;;1.37;0.80;;;17.20;99.90;;;;;;5107015;28;20195;-71
2022/10/08 13:29:30;;;;;;;0.40;0.40;;;17.10;99.90;;;;;;5106398;28;20227;-71
2022/10/08 13:32:21;;;;;;;0.40;0.40;;;17.40;99.90;;;;;;5104195;28;20260;-73
2022/10/08 13:35:22;;;;;;;0.40;0.40;;;17.60;99.90;;;;;;5103905;28;20231;-71
2022/10/08 13:38:21;;;;;;;12.65;1.25;;;17.60;99.90;;;;;;5103427;28;20203;-74
2022/10/08 13:41:22;;;;;;;0.47;0.47;;;17.80;99.90;;;;;;5103276;28;20725;-71
2022/10/08 13:44:11;;;;;;;0.40;0.40;;;18.00;99.90;;;;;;5103768;28;20215;-71
2022/10/08 13:46:59;;;;;;;0.50;0.50;;;17.60;99.90;;;;;;5106714;28;20200;-71
2022/10/08 13:49:50;;;;;;;0.73;0.73;;;17.40;99.90;;;;;;5105733;28;20212;-72
2022/10/08 13:52:42;;;;;;;0.93;0.93;;;17.00;99.90;;;;;;5109749;28;20250;-71
2022/10/08 13:55:32;;;;;;;0.50;0.50;;;17.00;99.90;;;;;;5107595;28;20206;-71
2022/10/08 13:58:21;;;;;;;0.50;0.50;;;17.10;99.90;;;;;;5107283;28;20271;-73
2022/10/08 14:01:09;;;;;;;1.85;0.75;;;17.40;99.90;;;;;;5103105;28;20192;-72
2022/10/08 14:03:58;;;;;;;0.40;0.40;;;18.00;99.90;;;;;;5105460;28;20212;-71
2022/10/08 14:06:49;;;;;;;0.50;0.50;;;18.00;99.90;;;;;;5106801;28;20208;-71
2022/10/08 14:09:37;;;;;;;0.40;0.40;;;17.70;99.90;;;;;;5103337;28;20291;-72
2022/10/08 14:12:28;;;;;;;0.40;0.40;;;19.30;99.90;;;;;;5100759;28;20206;-73
2022/10/08 14:15:19;;;;;;;0.40;0.40;;;19.40;99.90;;;;;;5087521;28;20200;-71
2022/10/08 14:18:07;;;;;;;0.40;0.40;;;19.50;99.90;;;;;;5080651;28;20215;-71
2022/10/08 14:20:55;;;;;;;0.40;0.40;;;19.70;99.90;;;;;;5080840;28;20675;-71
2022/10/08 14:23:44;;;;;;;0.88;0.88;;;19.30;99.90;;;;;;5081977;28;20292;-73
2022/10/08 14:26:32;;;;;;;0.40;0.40;;;18.90;99.90;;;;;;5080311;28;20192;-73
2022/10/08 14:29:20;;;;;;;1.73;1.63;;;18.20;99.90;;;;;;5082649;28;20205;-71
2022/10/08 14:32:10;;;;;;;1.67;1.58;;;17.60;99.90;;;;;;5084435;28;20228;-70
2022/10/08 14:34:58;;;;;;;0.40;0.40;;;16.70;99.90;;;;;;5079287;28;20203;-70
2022/10/08 14:37:46;;;;;;;2.83;0.70;;;15.00;99.90;;;;;;5082030;28;20200;-71
2022/10/08 14:40:35;;;;;;;0.40;0.40;;;13.90;99.90;;;;;;5080375;28;20282;-70
2022/10/08 14:43:23;;;;;;;0.90;0.90;;;13.10;99.90;;;;;;5075981;28;20234;-70
2022/10/08 14:46:14;;;;;;;0.47;0.47;;;12.70;99.90;;;;;;5076662;28;20224;-71
2022/10/08 14:49:04;;;;;;;0.40;0.40;;;12.60;99.90;;;;;;5077556;28;20423;-70
2022/10/08 14:51:52;;;;;;;0.40;0.40;;;12.70;99.90;;;;;;5078391;28;20459;-69
2022/10/08 14:54:40;;;;;;;0.40;0.40;;;12.50;99.90;;;;;;5078918;28;20522;-69
2022/10/08 14:57:28;;;;;;;0.50;0.50;;;12.50;99.90;;;;;;5082209;28;20439;-69
2022/10/08 15:00:16;;;;;;;0.40;0.40;;;12.40;99.90;;;;;;5081759;28;20810;-70